Time;durP1;ratioP1;P1;durP2;ratioP2;P2;SDS_P1;SDS_P2;PMS_P1;PMS_P2;Temp;Humidity;BMP_temperature;BMP_pressure;BME280_temperature;BME280_humidity;BME280_pressure;Samples;Min_cycle;Max_cycle;Signal;HPM_P1;HPM_P2
2022/09/12 00:01:37;;;;;;;14.25;9.77;;;15.90;99.90;;;;;;5030740;28;20049;-67
2022/09/12 00:04:02;;;;;;;11.70;10.15;;;15.80;99.90;;;;;;5030587;28;20048;-67
2022/09/12 00:06:31;;;;;;;13.10;10.18;;;15.80;99.90;;;;;;5032304;28;20123;-68
2022/09/12 00:09:00;;;;;;;15.35;9.85;;;15.90;99.90;;;;;;5031971;28;20041;-67
2022/09/12 00:11:27;;;;;;;13.70;10.10;;;15.90;99.90;;;;;;5032122;28;20041;-68
2022/09/12 00:13:58;;;;;;;12.30;10.48;;;15.80;99.90;;;;;;5031531;28;20053;-68
2022/09/12 00:16:26;;;;;;;11.75;10.55;;;15.70;99.90;;;;;;5032152;28;20045;-68
2022/09/12 00:18:52;;;;;;;12.10;10.80;;;15.70;99.90;;;;;;5031895;28;20045;-68
2022/09/12 00:21:18;;;;;;;16.00;10.73;;;15.70;99.90;;;;;;5030662;28;20087;-67
2022/09/12 00:23:45;;;;;;;13.80;10.98;;;15.60;99.90;;;;;;5031581;28;20448;-68
2022/09/12 00:26:11;;;;;;;14.27;11.20;;;15.60;99.90;;;;;;5031728;28;20542;-68
2022/09/12 00:28:38;;;;;;;11.20;10.00;;;15.50;99.90;;;;;;5030415;28;20095;-68
2022/09/12 00:31:10;;;;;;;11.82;10.18;;;15.60;99.90;;;;;;5030493;28;20124;-68
2022/09/12 00:33:36;;;;;;;;;;;15.60;99.90;;;;;;5032177;28;20041;-68
2022/09/12 00:36:10;;;;;;;12.23;10.35;;;15.50;99.90;;;;;;5031396;28;20011;-68
2022/09/12 00:38:37;;;;;;;13.18;9.73;;;15.40;99.90;;;;;;5031603;28;20125;-68
2022/09/12 00:41:11;;;;;;;12.75;10.32;;;15.40;99.90;;;;;;5030275;28;20045;-68
2022/09/12 00:43:40;;;;;;;11.70;9.93;;;15.40;99.90;;;;;;5030281;28;20120;-68
2022/09/12 00:46:33;;;;;;;9.35;8.38;;;15.40;99.90;;;;;;5028528;28;20079;-68
2022/09/12 00:49:13;;;;;;;12.27;9.82;;;15.30;99.90;;;;;;5031490;28;20120;-68
2022/09/12 00:51:48;;;;;;;10.68;9.52;;;15.30;99.90;;;;;;5031691;28;20034;-68
2022/09/12 00:54:20;;;;;;;11.18;9.45;;;15.30;99.90;;;;;;5029948;28;20041;-68
2022/09/12 00:56:49;;;;;;;12.32;9.77;;;15.30;99.90;;;;;;5031538;28;20080;-68
2022/09/12 00:59:19;;;;;;;10.98;9.73;;;15.30;99.90;;;;;;5031543;28;20414;-68
2022/09/12 01:01:46;;;;;;;10.25;8.45;;;15.30;99.90;;;;;;5031094;28;20038;-68
2022/09/12 01:04:12;;;;;;;10.98;8.90;;;15.20;99.90;;;;;;5030042;28;20087;-67
2022/09/12 01:06:41;;;;;;;12.50;9.80;;;15.10;99.90;;;;;;5031513;28;20110;-68
2022/09/12 01:09:08;;;;;;;9.98;8.80;;;15.10;99.90;;;;;;5031377;28;20519;-68
2022/09/12 01:11:37;;;;;;;9.13;8.13;;;15.10;99.90;;;;;;5031362;28;20119;-68
2022/09/12 01:14:02;;;;;;;13.25;9.43;;;15.10;99.90;;;;;;5030983;28;20033;-68
2022/09/12 01:16:28;;;;;;;11.23;8.45;;;15.00;99.90;;;;;;5031143;28;20553;-68
2022/09/12 01:19:23;;;;;;;11.93;10.30;;;14.90;99.90;;;;;;5031490;28;20037;-68
2022/09/12 01:22:07;;;;;;;11.40;10.10;;;14.90;99.90;;;;;;5013152;28;20502;-68
2022/09/12 01:24:36;;;;;;;11.52;9.73;;;14.90;99.90;;;;;;5030856;28;20041;-68
2022/09/12 01:27:32;;;;;;;15.27;11.80;;;14.90;99.90;;;;;;5031361;28;20041;-68
2022/09/12 01:30:37;;;;;;;16.13;10.95;;;14.90;99.90;;;;;;5031353;28;20042;-68
2022/09/12 01:33:11;;;;;;;12.60;11.25;;;14.80;99.90;;;;;;5026406;28;20145;-68
2022/09/12 01:36:07;;;;;;;14.00;11.38;;;14.80;99.90;;;;;;5029934;28;20403;-68
2022/09/12 01:38:43;;;;;;;14.82;11.82;;;14.80;99.90;;;;;;5030955;28;20522;-67
2022/09/12 01:41:33;;;;;;;13.05;11.60;;;14.70;99.90;;;;;;5029834;28;20041;-68
2022/09/12 01:44:24;;;;;;;18.55;11.48;;;14.70;99.90;;;;;;5026535;28;20060;-68
2022/09/12 01:47:08;;;;;;;14.77;11.60;;;14.70;99.90;;;;;;5031161;28;20120;-68
2022/09/12 01:49:55;;;;;;;13.80;11.65;;;14.70;99.90;;;;;;5030904;28;20048;-68
2022/09/12 01:52:31;;;;;;;15.88;11.32;;;14.70;99.90;;;;;;5031147;28;20053;-68
2022/09/12 01:55:19;;;;;;;16.35;11.02;;;14.70;99.90;;;;;;5032858;28;20065;-68
2022/09/12 01:58:16;;;;;;;13.50;10.73;;;14.70;99.90;;;;;;5033315;28;20102;-68
2022/09/12 02:00:58;;;;;;;15.77;11.75;;;14.70;99.90;;;;;;5032618;28;20447;-68
2022/09/12 02:03:30;;;;;;;17.65;11.40;;;14.70;99.90;;;;;;5034389;28;20045;-68
2022/09/12 02:06:21;;;;;;;17.33;12.65;;;14.70;99.90;;;;;;5034085;28;20042;-68
2022/09/12 02:08:53;;;;;;;13.18;10.93;;;14.70;99.90;;;;;;5034490;28;20072;-68
2022/09/12 02:11:20;;;;;;;15.60;13.02;;;14.70;99.90;;;;;;5034447;28;20041;-68
2022/09/12 02:14:05;;;;;;;15.70;12.18;;;14.70;99.90;;;;;;5033874;28;20511;-68
2022/09/12 02:16:39;;;;;;;16.45;12.63;;;14.60;99.90;;;;;;5034126;28;20037;-68
2022/09/12 02:19:19;;;;;;;17.67;12.93;;;14.60;99.90;;;;;;5033243;28;20041;-68
2022/09/12 02:21:50;;;;;;;17.63;12.88;;;14.60;99.90;;;;;;5034195;28;20045;-68
2022/09/12 02:24:17;;;;;;;16.38;12.68;;;14.70;99.90;;;;;;5033844;28;20389;-68
2022/09/12 02:26:48;;;;;;;17.05;13.35;;;14.60;99.90;;;;;;5034018;28;20040;-68
2022/09/12 02:29:14;;;;;;;17.55;13.40;;;14.60;99.90;;;;;;5032654;28;20399;-68
2022/09/12 02:31:56;;;;;;;19.48;13.88;;;14.60;99.90;;;;;;5034056;28;20045;-68
2022/09/12 02:34:48;;;;;;;14.27;12.32;;;14.50;99.90;;;;;;5033530;28;20052;-68
2022/09/12 02:37:26;;;;;;;17.20;13.23;;;14.50;99.90;;;;;;5033832;28;20052;-68
2022/09/12 02:39:54;;;;;;;12.45;10.75;;;14.40;99.90;;;;;;5032747;28;20758;-68
2022/09/12 02:42:21;;;;;;;14.13;11.25;;;14.30;99.90;;;;;;5033665;28;20657;-68
2022/09/12 02:44:47;;;;;;;13.93;10.98;;;14.30;99.90;;;;;;5033511;28;20048;-68
2022/09/12 02:47:26;;;;;;;15.30;10.73;;;14.30;99.90;;;;;;5033600;28;20116;-68
2022/09/12 02:49:52;;;;;;;13.55;11.35;;;14.40;99.90;;;;;;5033544;28;20038;-70
2022/09/12 02:52:19;;;;;;;14.15;11.57;;;14.40;99.90;;;;;;5032099;28;20048;-68
2022/09/12 02:54:44;;;;;;;15.13;12.32;;;14.40;99.90;;;;;;5033436;28;20041;-68
2022/09/12 02:57:18;;;;;;;16.10;12.27;;;14.40;99.90;;;;;;5033419;28;20043;-68
2022/09/12 02:59:45;;;;;;;19.05;12.65;;;14.40;99.90;;;;;;5033529;28;20403;-68
2022/09/12 03:02:32;;;;;;;18.00;14.07;;;14.40;99.90;;;;;;5031947;28;20057;-68
2022/09/12 03:05:21;;;;;;;18.40;13.43;;;14.40;99.90;;;;;;5032940;28;20052;-68
2022/09/12 03:08:10;;;;;;;17.35;13.85;;;14.40;99.90;;;;;;5033027;28;20049;-68
2022/09/12 03:10:50;;;;;;;16.13;12.57;;;14.40;99.90;;;;;;5033178;28;20452;-68
2022/09/12 03:13:50;;;;;;;14.13;11.50;;;14.30;99.90;;;;;;5033293;28;20045;-68
2022/09/12 03:16:55;;;;;;;13.65;11.85;;;14.30;99.90;;;;;;5033289;28;20411;-68
2022/09/12 03:19:36;;;;;;;12.60;10.90;;;14.30;99.90;;;;;;5032958;28;20046;-68
2022/09/12 03:22:08;;;;;;;13.02;11.32;;;14.30;99.90;;;;;;5033217;28;20444;-68
2022/09/12 03:25:03;;;;;;;15.83;11.83;;;14.30;99.90;;;;;;5032552;28;20044;-68
2022/09/12 03:27:34;;;;;;;15.55;11.90;;;14.30;99.90;;;;;;5032775;28;20049;-68
2022/09/12 03:30:00;;;;;;;15.60;11.23;;;14.20;99.90;;;;;;5032612;28;20487;-68
2022/09/12 03:32:58;;;;;;;16.40;12.27;;;14.20;99.90;;;;;;5032916;28;20038;-68
2022/09/12 03:35:24;;;;;;;16.58;12.35;;;14.20;99.90;;;;;;4993787;28;20057;-68
2022/09/12 03:37:51;;;;;;;17.23;12.38;;;14.20;99.90;;;;;;5010583;28;20049;-68
2022/09/12 03:40:17;;;;;;;15.77;12.80;;;14.10;99.90;;;;;;4994213;28;20049;-68
2022/09/12 03:42:42;;;;;;;14.18;12.05;;;14.10;99.90;;;;;;5010388;28;20057;-68
2022/09/12 03:45:09;;;;;;;14.02;11.80;;;14.00;99.90;;;;;;5010095;28;20054;-68
2022/09/12 03:47:35;;;;;;;16.05;13.00;;;14.00;99.90;;;;;;5010388;28;20122;-68
2022/09/12 03:50:01;;;;;;;15.00;12.60;;;14.00;99.90;;;;;;4994214;28;20100;-68
2022/09/12 03:52:27;;;;;;;17.38;12.82;;;14.00;99.90;;;;;;5010118;28;20045;-68
2022/09/12 03:54:52;;;;;;;18.67;14.60;;;14.00;99.90;;;;;;5010092;28;20206;-68
2022/09/12 03:57:18;;;;;;;18.67;14.27;;;14.00;99.90;;;;;;5010066;28;20049;-68
2022/09/12 03:59:44;;;;;;;20.05;14.50;;;13.90;99.90;;;;;;5010297;28;20044;-68
2022/09/12 04:02:12;;;;;;;17.70;14.05;;;13.90;99.90;;;;;;4993556;28;20523;-68
2022/09/12 04:04:39;;;;;;;22.95;15.57;;;13.90;99.90;;;;;;5009819;28;20042;-68
2022/09/12 04:07:05;;;;;;;20.50;15.90;;;13.90;99.90;;;;;;5009977;28;20121;-68
2022/09/12 04:09:30;;;;;;;25.98;18.33;;;13.90;99.90;;;;;;4993462;28;20125;-68
2022/09/12 04:11:56;;;;;;;24.52;17.60;;;13.90;99.90;;;;;;5029737;28;20125;-68
2022/09/12 04:14:21;;;;;;;22.42;16.67;;;13.90;99.90;;;;;;5031836;28;20460;-68
2022/09/12 04:16:47;;;;;;;21.70;16.67;;;13.80;99.90;;;;;;5031751;28;20037;-68
2022/09/12 04:19:13;;;;;;;23.80;17.13;;;13.80;99.90;;;;;;5031916;28;20048;-68
2022/09/12 04:21:38;;;;;;;24.65;17.25;;;13.90;99.90;;;;;;5031864;28;20041;-68
2022/09/12 04:24:04;;;;;;;27.33;18.48;;;13.90;99.90;;;;;;5030178;28;20117;-68
2022/09/12 04:26:30;;;;;;;31.48;20.33;;;13.90;99.90;;;;;;5030534;28;20577;-68
2022/09/12 04:28:56;;;;;;;31.35;20.60;;;13.90;99.90;;;;;;5030382;28;20083;-68
2022/09/12 04:31:23;;;;;;;37.00;22.35;;;13.90;99.90;;;;;;5031888;28;20515;-68
2022/09/12 04:33:59;;;;;;;30.38;21.23;;;13.80;99.90;;;;;;5030237;28;20451;-68
2022/09/12 04:36:26;;;;;;;34.67;23.45;;;13.80;99.90;;;;;;5030368;28;20092;-68
2022/09/12 04:38:52;;;;;;;35.97;23.55;;;13.80;99.90;;;;;;5030511;28;20121;-68
2022/09/12 04:41:24;;;;;;;37.10;23.48;;;13.90;99.90;;;;;;5031522;28;20500;-68
2022/09/12 04:43:57;;;;;;;35.65;23.88;;;14.00;99.90;;;;;;5031249;28;20268;-68
2022/09/12 04:46:24;;;;;;;39.33;25.67;;;14.00;99.90;;;;;;5030360;28;20057;-68
2022/09/12 04:48:50;;;;;;;37.70;23.90;;;14.00;99.90;;;;;;5028670;28;20405;-68
2022/09/12 04:51:21;;;;;;;40.35;27.00;;;14.00;99.90;;;;;;5029519;28;20055;-68
2022/09/12 04:53:49;;;;;;;43.25;26.08;;;14.00;99.90;;;;;;5030736;28;20037;-68
2022/09/12 04:56:15;;;;;;;41.83;26.27;;;14.00;99.90;;;;;;5028958;28;20037;-68
2022/09/12 04:58:41;;;;;;;39.45;25.13;;;14.10;99.90;;;;;;5031451;28;20149;-68
2022/09/12 05:01:15;;;;;;;37.10;25.17;;;14.00;99.90;;;;;;5029914;28;20048;-68
2022/09/12 05:03:44;;;;;;;34.72;24.15;;;14.10;99.90;;;;;;5029950;28;20120;-68
2022/09/12 05:06:12;;;;;;;37.35;23.85;;;14.10;99.90;;;;;;5031529;28;20446;-68
2022/09/12 05:08:38;;;;;;;38.83;23.92;;;14.00;99.90;;;;;;5030066;28;20050;-68
2022/09/12 05:11:07;;;;;;;34.55;23.67;;;14.10;99.90;;;;;;5031332;28;20557;-68
2022/09/12 05:13:33;;;;;;;35.72;24.55;;;14.10;99.90;;;;;;5031233;28;20041;-68
2022/09/12 05:16:01;;;;;;;36.08;23.05;;;14.20;99.90;;;;;;5030899;28;20200;-68
2022/09/12 05:18:27;;;;;;;37.33;23.63;;;14.20;99.90;;;;;;5031511;28;20084;-68
2022/09/12 05:20:53;;;;;;;34.95;22.00;;;14.20;99.90;;;;;;5031326;28;20041;-68
2022/09/12 05:23:19;;;;;;;32.55;21.58;;;14.20;99.90;;;;;;5031210;28;20376;-68
2022/09/12 05:25:53;;;;;;;31.25;22.40;;;14.20;99.90;;;;;;5029851;28;20067;-68
2022/09/12 05:28:19;;;;;;;32.97;21.95;;;14.20;99.90;;;;;;5029797;28;20048;-68
2022/09/12 05:30:45;;;;;;;32.92;20.70;;;14.10;99.90;;;;;;5035064;28;20072;-68
2022/09/12 05:33:12;;;;;;;31.13;21.25;;;14.20;99.90;;;;;;5034889;28;20542;-68
2022/09/12 05:35:39;;;;;;;35.15;21.13;;;14.20;99.90;;;;;;5034798;28;20060;-68
2022/09/12 05:38:05;;;;;;;30.17;21.08;;;14.30;99.90;;;;;;5034940;28;20124;-68
2022/09/12 05:40:31;;;;;;;33.97;21.33;;;14.30;99.90;;;;;;5034878;28;20449;-68
2022/09/12 05:42:57;;;;;;;36.47;23.15;;;14.30;99.90;;;;;;5034678;28;20400;-68
2022/09/12 05:45:22;;;;;;;32.58;20.98;;;14.30;99.90;;;;;;5033284;28;20041;-68
2022/09/12 05:47:48;;;;;;;35.67;21.48;;;14.40;99.90;;;;;;5034781;28;20515;-68
2022/09/12 05:50:14;;;;;;;32.90;21.98;;;14.50;99.90;;;;;;5033765;28;20510;-68
2022/09/12 05:52:39;;;;;;;35.38;22.42;;;14.50;99.90;;;;;;5034682;28;20042;-67
2022/09/12 05:55:05;;;;;;;33.15;22.55;;;14.50;99.90;;;;;;5034387;28;20056;-67
2022/09/12 05:57:32;;;;;;;34.40;22.30;;;14.50;99.90;;;;;;5034527;28;20108;-68
2022/09/12 05:59:57;;;;;;;36.30;23.05;;;14.50;99.90;;;;;;5034478;28;20079;-67
2022/09/12 06:02:23;;;;;;;35.83;23.35;;;14.60;99.90;;;;;;5033338;28;20072;-67
2022/09/12 06:04:48;;;;;;;38.53;23.73;;;14.60;99.90;;;;;;5034201;28;20037;-67
2022/09/12 06:07:14;;;;;;;38.75;24.08;;;14.60;99.90;;;;;;5033486;28;20459;-68
2022/09/12 06:09:40;;;;;;;39.25;23.38;;;14.60;99.90;;;;;;5034133;28;20041;-68
2022/09/12 06:12:06;;;;;;;39.75;25.20;;;14.70;99.90;;;;;;5034271;28;20033;-68
2022/09/12 06:14:32;;;;;;;37.08;23.75;;;14.70;99.90;;;;;;5034075;28;20073;-68
2022/09/12 06:16:58;;;;;;;43.80;24.83;;;14.70;99.90;;;;;;5032832;28;20107;-68
2022/09/12 06:19:26;;;;;;;40.90;24.63;;;14.80;99.90;;;;;;5034290;28;20046;-67
2022/09/12 06:21:52;;;;;;;42.55;26.35;;;14.80;99.90;;;;;;5033734;28;20084;-68
2022/09/12 06:24:19;;;;;;;38.17;25.08;;;14.80;99.90;;;;;;5033425;28;20041;-68
2022/09/12 06:26:46;;;;;;;40.40;26.02;;;14.80;99.90;;;;;;5032998;28;20037;-68
2022/09/12 06:29:12;;;;;;;43.42;25.52;;;14.90;99.90;;;;;;5034121;28;20121;-68
2022/09/12 06:31:40;;;;;;;39.25;25.42;;;14.90;99.90;;;;;;5033594;28;20146;-68
2022/09/12 06:34:08;;;;;;;42.55;25.73;;;14.90;99.90;;;;;;5032144;28;20077;-67
2022/09/12 06:36:37;;;;;;;43.67;27.33;;;14.90;99.90;;;;;;5032760;28;20038;-68
2022/09/12 06:39:12;;;;;;;41.38;26.85;;;14.90;99.90;;;;;;5034026;28;20091;-68
2022/09/12 06:41:38;;;;;;;43.25;27.20;;;14.90;99.90;;;;;;5033463;28;20095;-68
2022/09/12 06:44:04;;;;;;;45.05;27.25;;;15.00;99.90;;;;;;5033364;28;20041;-68
2022/09/12 06:46:30;;;;;;;46.13;27.40;;;15.00;99.90;;;;;;5032526;28;20049;-68
2022/09/12 06:48:58;;;;;;;44.35;27.38;;;15.00;99.90;;;;;;5033368;28;20045;-68
2022/09/12 06:51:24;;;;;;;42.80;28.10;;;15.00;99.90;;;;;;5033657;28;20116;-68
2022/09/12 06:53:51;;;;;;;46.63;27.65;;;15.10;99.90;;;;;;5031754;28;20436;-67
2022/09/12 06:56:21;;;;;;;45.13;28.42;;;15.10;99.90;;;;;;5033390;28;20494;-68
2022/09/12 06:58:48;;;;;;;44.22;26.92;;;15.10;99.90;;;;;;5033646;28;20045;-68
2022/09/12 07:01:22;;;;;;;45.70;27.13;;;15.10;99.90;;;;;;5031902;28;20521;-67
2022/09/12 07:03:50;;;;;;;46.85;27.80;;;15.20;99.90;;;;;;5033195;28;20399;-67
2022/09/12 07:06:17;;;;;;;45.40;29.08;;;15.20;99.90;;;;;;5033444;28;20041;-67
2022/09/12 07:08:43;;;;;;;48.40;28.20;;;15.20;99.90;;;;;;5033045;28;20034;-67
2022/09/12 07:11:14;;;;;;;45.17;27.77;;;15.30;99.90;;;;;;5033231;28;20087;-67
2022/09/12 07:13:41;;;;;;;47.25;28.95;;;15.20;99.90;;;;;;5031591;28;20057;-66
2022/09/12 07:16:07;;;;;;;47.20;28.70;;;15.30;99.90;;;;;;5033204;28;20049;-67
2022/09/12 07:18:33;;;;;;;48.78;29.17;;;15.30;99.90;;;;;;5031711;28;20045;-67
2022/09/12 07:21:02;;;;;;;46.22;28.40;;;15.30;99.90;;;;;;5033089;28;20045;-66
2022/09/12 07:23:29;;;;;;;45.65;28.15;;;15.40;99.90;;;;;;5032810;28;20056;-67
2022/09/12 07:25:56;;;;;;;45.40;29.55;;;15.50;99.90;;;;;;5032658;28;20083;-66
2022/09/12 07:28:23;;;;;;;44.30;27.50;;;15.50;99.90;;;;;;5032911;28;20049;-66
2022/09/12 07:30:52;;;;;;;40.95;25.00;;;15.50;99.90;;;;;;5032799;28;20045;-67
2022/09/12 07:33:22;;;;;;;49.88;27.58;;;15.50;99.90;;;;;;5032724;28;20116;-68
2022/09/12 07:35:48;;;;;;;38.97;24.70;;;15.60;99.90;;;;;;5032470;28;20116;-69
2022/09/12 07:38:14;;;;;;;47.30;26.88;;;15.60;99.90;;;;;;5031347;28;20050;-68
2022/09/12 07:40:40;;;;;;;47.40;26.17;;;15.70;99.90;;;;;;5032653;28;20045;-68
2022/09/12 07:43:05;;;;;;;40.55;26.10;;;15.80;99.90;;;;;;5032464;28;20499;-68
2022/09/12 07:45:31;;;;;;;44.78;26.33;;;15.80;99.90;;;;;;5032213;28;20053;-68
2022/09/12 07:47:57;;;;;;;43.22;20.23;;;15.80;99.90;;;;;;5032415;28;20052;-69
2022/09/12 07:50:22;;;;;;;40.35;23.98;;;16.20;99.90;;;;;;5032373;28;20518;-68
2022/09/12 07:52:48;;;;;;;39.17;22.52;;;16.40;99.90;;;;;;5031710;28;20411;-70
2022/09/12 07:55:13;;;;;;;38.50;24.80;;;16.70;99.90;;;;;;5030798;28;20038;-69
2022/09/12 07:57:39;;;;;;;38.50;24.27;;;16.80;99.90;;;;;;5033973;28;20047;-79
2022/09/12 08:00:07;;;;;;;38.97;23.27;;;16.90;99.90;;;;;;5031218;28;20080;-68
2022/09/12 08:02:33;;;;;;;37.83;23.75;;;16.90;99.90;;;;;;5032169;28;20041;-68
2022/09/12 08:04:59;;;;;;;41.92;24.33;;;16.80;99.90;;;;;;5031872;28;20056;-67
2022/09/12 08:07:24;;;;;;;43.95;23.35;;;16.80;99.90;;;;;;5032074;28;20152;-67
2022/09/12 08:09:50;;;;;;;38.33;23.70;;;16.70;99.90;;;;;;5032237;28;20435;-67
2022/09/12 08:12:16;;;;;;;35.00;23.75;;;16.70;99.90;;;;;;5030648;28;20040;-67
2022/09/12 08:14:42;;;;;;;38.33;22.98;;;16.70;99.90;;;;;;5030531;28;20050;-67
2022/09/12 08:17:07;;;;;;;36.30;22.17;;;16.80;99.90;;;;;;5032035;28;20516;-67
2022/09/12 08:19:33;;;;;;;36.22;22.67;;;16.70;99.90;;;;;;5032165;28;20045;-66
2022/09/12 08:21:59;;;;;;;41.25;22.17;;;16.70;99.90;;;;;;5031844;28;20050;-66
2022/09/12 08:24:24;;;;;;;39.63;22.92;;;16.80;99.90;;;;;;5031928;28;20120;-66
2022/09/12 08:26:50;;;;;;;34.08;21.17;;;16.80;99.90;;;;;;5031942;28;20064;-66
2022/09/12 08:29:15;;;;;;;40.08;22.35;;;16.90;99.90;;;;;;5032081;28;20099;-67
2022/09/12 08:31:41;;;;;;;39.40;21.85;;;16.90;99.90;;;;;;5031410;28;20484;-66
2022/09/12 08:34:07;;;;;;;37.13;21.90;;;16.90;99.90;;;;;;5031451;28;20034;-67
2022/09/12 08:36:33;;;;;;;33.03;19.63;;;17.00;99.90;;;;;;5032019;28;20034;-67
2022/09/12 08:39:01;;;;;;;38.67;22.70;;;17.00;99.90;;;;;;5025717;28;20492;-67
2022/09/12 08:41:42;;;;;;;35.88;22.50;;;17.00;99.90;;;;;;5012234;28;20099;-67
2022/09/12 08:44:36;;;;;;;36.72;21.60;;;17.00;99.90;;;;;;5014557;28;20045;-67
2022/09/12 08:47:18;;;;;;;34.08;22.17;;;17.00;99.90;;;;;;5030045;28;20033;-67
2022/09/12 08:49:48;;;;;;;;;;;17.00;99.90;;;;;;5030965;28;20042;-67
2022/09/12 08:52:20;;;;;;;36.90;21.83;;;17.00;99.90;;;;;;5031752;28;19924;-67
2022/09/12 08:54:46;;;;;;;;;;;17.10;99.90;;;;;;5031831;28;20073;-67
2022/09/12 08:57:14;;;;;;;42.13;23.95;;;17.10;99.90;;;;;;5031915;28;19948;-67
2022/09/12 08:59:47;;;;;;;44.20;24.90;;;17.10;99.90;;;;;;5031732;28;20578;-67
2022/09/12 09:02:40;;;;;;;39.47;24.13;;;17.20;99.90;;;;;;5030477;28;20192;-67
2022/09/12 09:05:35;;;;;;;47.03;27.08;;;17.30;99.90;;;;;;5033167;28;20045;-67
2022/09/12 09:08:23;;;;;;;48.15;27.35;;;17.40;99.90;;;;;;5035813;28;20049;-67
2022/09/12 09:11:03;;;;;;;46.92;26.23;;;17.50;99.90;;;;;;5035638;28;20045;-66
2022/09/12 09:16:31;;;;;;;49.17;27.00;;;17.60;99.90;;;;;;5034396;28;20049;-67
2022/09/12 09:19:01;;;;;;;48.17;26.88;;;17.70;99.90;;;;;;5033348;28;20084;-67
2022/09/12 09:21:30;;;;;;;49.75;28.05;;;17.80;99.90;;;;;;5035548;28;20479;-67
2022/09/12 09:24:19;;;;;;;51.17;27.63;;;17.90;99.90;;;;;;5034951;28;20045;-67
2022/09/12 09:27:05;;;;;;;52.63;29.50;;;17.90;99.90;;;;;;5035619;28;20049;-67
2022/09/12 09:29:44;;;;;;;54.42;30.00;;;18.00;99.90;;;;;;5035363;28;20124;-67
2022/09/12 09:32:17;;;;;;;50.28;28.60;;;18.10;99.90;;;;;;5034770;28;20124;-67
2022/09/12 09:34:43;;;;;;;52.47;29.42;;;18.10;99.90;;;;;;5034935;28;20711;-67
2022/09/12 09:37:34;;;;;;;56.03;29.67;;;18.10;99.90;;;;;;5035345;28;20038;-67
2022/09/12 09:40:05;;;;;;;54.90;30.00;;;18.20;99.90;;;;;;5035419;28;20530;-67
2022/09/12 09:42:57;;;;;;;54.83;28.77;;;18.30;99.90;;;;;;5035514;28;20041;-67
2022/09/12 09:45:26;;;;;;;57.35;31.77;;;18.40;99.90;;;;;;5034986;28;20141;-67
2022/09/12 09:48:02;;;;;;;56.33;29.52;;;18.40;99.90;;;;;;5034959;28;20099;-67
2022/09/12 09:50:28;;;;;;;54.50;28.02;;;18.50;99.90;;;;;;5033978;28;20041;-67
2022/09/12 09:52:57;;;;;;;52.83;29.65;;;18.60;99.90;;;;;;5017001;28;20045;-67
2022/09/12 09:55:29;;;;;;;55.75;30.17;;;18.70;99.90;;;;;;5034456;28;20041;-67
2022/09/12 09:57:55;;;;;;;56.35;29.80;;;18.80;99.90;;;;;;5033837;28;20492;-67
2022/09/12 10:00:24;;;;;;;51.45;28.63;;;18.90;99.90;;;;;;5033617;28;20050;-67
2022/09/12 10:03:01;;;;;;;52.85;28.35;;;19.00;99.90;;;;;;5033445;28;20057;-67
2022/09/12 10:05:27;;;;;;;50.15;26.52;;;19.20;99.90;;;;;;5033369;28;20084;-67
2022/09/12 10:07:53;;;;;;;49.67;26.70;;;19.30;99.90;;;;;;5034502;28;20129;-67
2022/09/12 10:10:22;;;;;;;45.17;24.92;;;19.30;99.90;;;;;;5033504;28;20132;-67
2022/09/12 10:12:48;;;;;;;45.47;24.63;;;19.30;99.90;;;;;;5034569;28;20037;-67
2022/09/12 10:15:26;;;;;;;45.15;25.75;;;19.30;99.90;;;;;;5032626;28;20045;-67
2022/09/12 10:17:54;;;;;;;43.65;23.65;;;19.30;99.90;;;;;;5034919;28;20053;-67
2022/09/12 10:20:43;;;;;;;43.50;25.30;;;19.40;99.90;;;;;;5034395;28;20102;-67
2022/09/12 10:23:22;;;;;;;45.95;24.75;;;19.40;99.90;;;;;;5034423;28;20072;-67
2022/09/12 10:25:53;;;;;;;41.47;23.95;;;19.60;99.90;;;;;;5032750;28;20125;-67
2022/09/12 10:28:38;;;;;;;42.70;24.87;;;19.70;99.90;;;;;;5034289;28;20080;-67
2022/09/12 10:31:05;;;;;;;41.80;23.88;;;19.80;99.90;;;;;;5033882;28;20418;-67
2022/09/12 10:33:52;;;;;;;44.22;23.75;;;19.90;99.90;;;;;;5034040;28;20041;-67
2022/09/12 10:36:19;;;;;;;40.92;25.20;;;19.90;99.90;;;;;;5034061;28;20088;-67
2022/09/12 10:38:50;;;;;;;37.35;23.75;;;19.90;99.90;;;;;;5034155;28;20042;-67
2022/09/12 10:41:16;;;;;;;39.13;22.67;;;20.00;99.90;;;;;;5032783;28;20088;-67
2022/09/12 10:43:42;;;;;;;34.83;21.98;;;20.10;99.90;;;;;;5033820;28;20037;-67
2022/09/12 10:46:14;;;;;;;39.80;23.40;;;20.10;99.90;;;;;;5033833;28;20107;-67
2022/09/12 10:48:40;;;;;;;36.15;22.40;;;20.10;99.90;;;;;;5033736;28;20049;-67
2022/09/12 10:51:23;;;;;;;41.13;23.08;;;20.10;99.90;;;;;;5034087;28;20049;-67
2022/09/12 10:53:50;;;;;;;44.25;24.23;;;20.20;99.90;;;;;;5032538;28;20045;-67
2022/09/12 10:56:20;;;;;;;41.55;23.92;;;20.20;99.90;;;;;;5033654;28;20491;-67
2022/09/12 10:59:02;;;;;;;34.40;20.38;;;20.30;99.90;;;;;;5033755;28;20038;-67
2022/09/12 11:01:31;;;;;;;36.85;21.70;;;20.30;99.90;;;;;;5033767;28;20053;-67
2022/09/12 11:04:34;;;;;;;35.97;21.00;;;20.40;99.90;;;;;;5033407;28;20047;-67
2022/09/12 11:07:24;;;;;;;36.65;20.67;;;20.40;99.90;;;;;;5032254;28;20056;-67
2022/09/12 11:10:17;;;;;;;33.40;20.85;;;20.50;99.90;;;;;;5033562;28;20470;-67
2022/09/12 11:12:58;;;;;;;31.15;20.05;;;20.50;99.90;;;;;;5033494;28;20041;-67
2022/09/12 11:16:01;;;;;;;33.20;20.77;;;20.50;99.90;;;;;;5031851;28;20041;-67
2022/09/12 11:19:02;;;;;;;35.63;19.33;;;20.70;99.90;;;;;;5033418;28;20096;-67
2022/09/12 11:21:51;;;;;;;41.00;21.02;;;20.80;99.90;;;;;;5033344;28;20444;-67
2022/09/12 11:24:49;;;;;;;37.42;20.42;;;20.80;99.90;;;;;;5033078;28;20388;-67
2022/09/12 11:27:44;;;;;;;34.92;20.83;;;20.80;99.90;;;;;;5032510;28;20067;-67
2022/09/12 11:30:13;;;;;;;37.30;22.17;;;20.80;99.90;;;;;;5026294;28;20061;-67
2022/09/12 11:33:04;;;;;;;32.22;19.88;;;20.90;99.90;;;;;;5031931;28;20364;-67
2022/09/12 11:35:32;;;;;;;32.88;18.95;;;21.10;99.90;;;;;;5032820;28;20056;-68
2022/09/12 11:38:04;;;;;;;31.95;17.83;;;21.10;99.90;;;;;;5032982;28;20052;-67
2022/09/12 11:40:54;;;;;;;30.00;17.30;;;21.10;99.90;;;;;;5031578;28;20068;-67
2022/09/12 11:43:39;;;;;;;27.20;15.68;;;21.30;99.90;;;;;;5032968;28;20085;-67
2022/09/12 11:46:26;;;;;;;26.10;14.75;;;21.20;99.90;;;;;;5032773;28;20093;-67
2022/09/12 11:49:20;;;;;;;30.33;18.35;;;21.30;99.90;;;;;;5031356;28;20046;-67
2022/09/12 11:52:10;;;;;;;30.17;17.52;;;21.20;99.90;;;;;;5031471;28;20042;-67
2022/09/12 11:55:15;;;;;;;26.23;15.73;;;21.20;99.90;;;;;;5031056;28;20042;-67
2022/09/12 11:57:50;;;;;;;25.00;15.13;;;21.20;99.90;;;;;;5031282;28;20116;-67
2022/09/12 12:00:36;;;;;;;19.85;12.80;;;21.30;99.90;;;;;;5031258;28;20041;-67
2022/09/12 12:03:39;;;;;;;22.08;13.60;;;21.30;99.90;;;;;;5031195;28;20044;-67
2022/09/12 12:06:29;;;;;;;25.95;13.93;;;21.20;99.90;;;;;;4954871;28;20133;-67
2022/09/12 12:08:54;;;;;;;22.85;14.73;;;21.30;99.90;;;;;;4955055;28;20063;-67
2022/09/12 12:11:43;;;;;;;24.17;14.98;;;21.40;99.90;;;;;;4971321;28;20524;-67
2022/09/12 12:14:41;;;;;;;23.67;14.60;;;21.40;99.90;;;;;;4954666;28;20093;-67
2022/09/12 12:17:14;;;;;;;25.52;15.32;;;21.50;99.90;;;;;;4952361;28;20129;-67
2022/09/12 12:19:40;;;;;;;25.23;14.77;;;21.50;99.90;;;;;;4954969;28;20054;-68
2022/09/12 12:22:19;;;;;;;20.10;13.93;;;21.50;99.90;;;;;;4954919;28;20113;-68
2022/09/12 12:25:07;;;;;;;22.13;14.35;;;21.60;99.90;;;;;;4970825;28;20047;-68
2022/09/12 12:27:48;;;;;;;26.90;12.90;;;21.60;99.90;;;;;;4971037;28;20402;-68
2022/09/12 12:30:28;;;;;;;25.48;14.02;;;21.60;99.90;;;;;;4970951;28;20066;-68
2022/09/12 12:33:26;;;;;;;19.58;13.20;;;21.70;99.90;;;;;;4954661;28;20047;-68
2022/09/12 12:35:54;;;;;;;23.08;13.82;;;21.70;99.90;;;;;;4970431;28;20054;-68
2022/09/12 12:38:31;;;;;;;23.05;13.68;;;21.80;99.90;;;;;;4954466;28;20448;-67
2022/09/12 12:41:15;;;;;;;22.00;13.00;;;21.80;99.90;;;;;;4982671;28;20046;-67
2022/09/12 12:43:42;;;;;;;18.98;12.55;;;21.80;99.90;;;;;;5031808;28;20450;-68
2022/09/12 12:46:11;;;;;;;20.83;13.23;;;21.80;99.90;;;;;;5031883;28;20042;-68
2022/09/12 12:48:48;;;;;;;20.05;13.63;;;21.80;99.90;;;;;;5031836;28;20049;-68
2022/09/12 12:51:41;;;;;;;20.38;12.25;;;21.90;99.90;;;;;;5031763;28;20037;-67
2022/09/12 12:54:40;;;;;;;23.27;12.30;;;21.90;99.90;;;;;;5030444;28;20547;-68
2022/09/12 12:57:19;;;;;;;15.80;10.80;;;22.00;99.90;;;;;;5031674;28;20029;-68
2022/09/12 12:59:55;;;;;;;16.60;10.48;;;22.00;99.90;;;;;;5031514;28;20041;-68
2022/09/12 13:02:35;;;;;;;14.05;9.07;;;22.10;99.90;;;;;;5031584;28;20041;-67